createdAt,value
2023-01-04T00:00:34.379Z,22.74
2023-01-04T00:03:08.204Z,22.72
2023-01-04T00:05:36.041Z,22.74
2023-01-04T00:08:06.972Z,22.80
2023-01-04T00:10:35.515Z,22.83
2023-01-04T00:13:03.485Z,22.86
2023-01-04T00:15:33.304Z,22.83
2023-01-04T00:18:02.931Z,22.77
2023-01-04T00:20:34.233Z,22.72
2023-01-04T00:23:01.901Z,22.72
2023-01-04T00:25:34.237Z,22.73
2023-01-04T00:28:01.833Z,22.71
2023-01-04T00:30:31.946Z,22.70
2023-01-04T00:33:02.542Z,22.67
2023-01-04T00:35:45.415Z,22.66
2023-01-04T00:38:16.138Z,22.67
2023-01-04T00:40:46.495Z,22.66
2023-01-04T00:43:20.479Z,22.77
2023-01-04T00:45:50.451Z,22.83
2023-01-04T00:48:18.035Z,22.82
2023-01-04T00:50:47.433Z,22.83
2023-01-04T00:53:16.166Z,22.82
2023-01-04T00:55:46.485Z,22.82
2023-01-04T00:58:14.280Z,22.82
2023-01-04T01:00:44.170Z,22.78
2023-01-04T01:03:14.623Z,22.75
2023-01-04T01:05:42.221Z,22.73
2023-01-04T01:08:26.034Z,22.75
2023-01-04T01:10:56.112Z,22.72
2023-01-04T01:13:24.045Z,22.69
2023-01-04T01:15:53.994Z,22.68
2023-01-04T01:18:21.682Z,22.70
2023-01-04T01:20:52.493Z,22.68
2023-01-04T01:23:22.010Z,22.69
2023-01-04T01:26:03.289Z,22.73
2023-01-04T01:28:37.240Z,22.76
2023-01-04T01:31:29.680Z,22.79
2023-01-04T01:34:02.064Z,22.77
2023-01-04T01:36:29.826Z,22.76
2023-01-04T01:39:00.349Z,22.71
2023-01-04T01:41:36.099Z,22.73
2023-01-04T01:44:41.665Z,22.76
2023-01-04T01:47:20.123Z,22.76
2023-01-04T01:49:54.611Z,22.74
2023-01-04T01:52:29.140Z,22.74
2023-01-04T01:55:04.946Z,22.74
2023-01-04T01:57:38.779Z,22.76
2023-01-04T02:00:16.561Z,22.76
2023-01-04T02:02:57.187Z,22.76
2023-01-04T02:05:28.508Z,22.80
2023-01-04T02:07:56.696Z,22.94
2023-01-04T02:10:27.330Z,23.04
2023-01-04T02:12:57.854Z,23.12
2023-01-04T02:15:38.391Z,23.18
2023-01-04T02:18:21.630Z,23.31
2023-01-04T02:21:41.781Z,23.46
2023-01-04T02:24:33.683Z,23.48
2023-01-04T02:27:34.909Z,23.64
2023-01-04T02:30:31.563Z,23.74
2023-01-04T02:33:24.728Z,23.65
2023-01-04T02:36:14.963Z,23.74
2023-01-04T02:38:54.823Z,23.84
2023-01-04T02:41:34.224Z,23.88
2023-01-04T02:44:31.088Z,23.90
2023-01-04T02:47:47.093Z,24.01
2023-01-04T02:50:34.065Z,24.10
2023-01-04T02:53:09.208Z,24.03
2023-01-04T02:56:35.458Z,24.06
2023-01-04T02:59:27.637Z,24.08
2023-01-04T03:02:48.868Z,24.11
2023-01-04T03:05:59.470Z,24.16
2023-01-04T03:08:38.168Z,24.14
2023-01-04T03:11:29.331Z,24.18
2023-01-04T03:14:32.422Z,24.17
2023-01-04T03:17:08.791Z,24.20
2023-01-04T03:19:55.244Z,24.18
2023-01-04T03:23:00.157Z,24.27
2023-01-04T03:25:54.099Z,24.10
2023-01-04T03:28:48.384Z,24.00
2023-01-04T03:31:50.849Z,23.82
2023-01-04T03:34:37.265Z,23.62
2023-01-04T03:37:43.934Z,23.51
2023-01-04T03:40:46.333Z,23.36
2023-01-04T03:43:37.204Z,23.23
2023-01-04T03:46:23.510Z,23.13
2023-01-04T03:49:00.871Z,23.05
2023-01-04T03:51:33.776Z,23.06
2023-01-04T03:54:11.823Z,23.02
2023-01-04T03:56:43.436Z,22.97
2023-01-04T03:59:16.364Z,22.92
2023-01-04T04:01:50.361Z,22.92
2023-01-04T04:04:38.926Z,22.89
2023-01-04T04:07:28.035Z,22.85
2023-01-04T04:10:00.184Z,22.84
2023-01-04T04:12:27.876Z,22.83
2023-01-04T04:14:55.566Z,22.80
2023-01-04T04:17:23.071Z,22.83
2023-01-04T04:19:50.774Z,22.83
2023-01-04T04:22:20.965Z,22.82
2023-01-04T04:24:53.955Z,22.86
2023-01-04T04:27:24.986Z,22.83
2023-01-04T04:30:02.592Z,22.81
2023-01-04T04:32:32.662Z,22.78
2023-01-04T04:35:03.362Z,22.77
2023-01-04T04:37:35.068Z,22.77
2023-01-04T04:40:05.887Z,22.76
2023-01-04T04:42:33.641Z,22.79
2023-01-04T04:45:05.966Z,22.80
2023-01-04T04:47:33.417Z,22.77
2023-01-04T04:50:02.571Z,22.77
2023-01-04T04:52:35.745Z,22.76
2023-01-04T04:55:03.536Z,22.75
2023-01-04T04:57:31.419Z,22.76
2023-01-04T04:59:59.932Z,22.77
2023-01-04T05:02:27.581Z,22.78
2023-01-04T05:04:58.088Z,22.78
2023-01-04T05:07:28.021Z,22.77
2023-01-04T05:09:58.532Z,22.76
2023-01-04T05:12:45.146Z,22.75
2023-01-04T05:15:14.975Z,22.74
2023-01-04T05:17:47.870Z,22.72
2023-01-04T05:20:15.775Z,22.69
2023-01-04T05:22:46.426Z,22.72
2023-01-04T05:25:14.947Z,22.71
2023-01-04T05:27:45.503Z,22.66
2023-01-04T05:30:35.353Z,22.68
2023-01-04T05:33:03.932Z,22.64
2023-01-04T05:35:34.360Z,22.63
2023-01-04T05:38:01.989Z,22.63
2023-01-04T05:40:30.128Z,22.66
2023-01-04T05:43:02.192Z,22.70
2023-01-04T05:45:32.911Z,22.71
2023-01-04T05:48:03.806Z,22.74
2023-01-04T05:50:32.346Z,22.74
2023-01-04T05:53:07.014Z,22.72
2023-01-04T05:55:38.040Z,22.70
2023-01-04T05:58:06.081Z,22.64
2023-01-04T06:00:33.491Z,22.64
2023-01-04T06:03:01.109Z,22.67
2023-01-04T06:05:29.043Z,22.67
2023-01-04T06:07:59.509Z,22.66
2023-01-04T06:10:30.048Z,22.69
2023-01-04T06:13:00.272Z,22.70
2023-01-04T06:15:35.387Z,22.68
2023-01-04T06:18:12.954Z,22.68
2023-01-04T06:20:43.962Z,22.70
2023-01-04T06:23:11.808Z,22.75
2023-01-04T06:25:43.026Z,22.75
2023-01-04T06:28:11.154Z,22.72
2023-01-04T06:30:46.487Z,22.69
2023-01-04T06:33:17.094Z,22.72
2023-01-04T06:35:57.243Z,22.73
2023-01-04T06:38:31.069Z,22.77
2023-01-04T06:41:04.664Z,22.77
2023-01-04T06:43:36.640Z,22.73
2023-01-04T06:46:09.672Z,22.76
2023-01-04T06:48:39.890Z,22.71
2023-01-04T06:51:10.346Z,22.71
2023-01-04T06:53:40.767Z,22.72
2023-01-04T06:56:13.152Z,22.73
2023-01-04T06:58:42.062Z,22.80
2023-01-04T07:01:17.995Z,22.77
2023-01-04T07:03:45.567Z,22.83
2023-01-04T07:06:15.897Z,22.83
2023-01-04T07:08:44.661Z,22.85
2023-01-04T07:11:19.932Z,22.92
2023-01-04T07:13:49.708Z,23.01
2023-01-04T07:16:17.650Z,23.10
2023-01-04T07:18:45.136Z,23.15
2023-01-04T07:21:12.544Z,23.21
2023-01-04T07:23:43.006Z,23.23
2023-01-04T07:26:11.083Z,23.31
2023-01-04T07:29:00.228Z,23.37
2023-01-04T07:31:30.279Z,23.46
2023-01-04T07:34:00.720Z,23.49
2023-01-04T07:36:31.148Z,23.58
2023-01-04T07:39:03.148Z,23.61
2023-01-04T07:41:30.664Z,23.89
2023-01-04T07:44:01.412Z,24.20
2023-01-04T07:46:31.737Z,24.17
2023-01-04T07:49:00.287Z,24.14
2023-01-04T07:51:27.894Z,24.02
2023-01-04T07:54:00.163Z,23.96
2023-01-04T07:56:36.019Z,23.93
2023-01-04T07:59:16.425Z,23.93
2023-01-04T08:01:45.310Z,24.04
2023-01-04T08:04:22.111Z,24.05
2023-01-04T08:06:53.060Z,23.96
2023-01-04T08:09:23.916Z,23.84
2023-01-04T08:11:59.452Z,23.82
2023-01-04T08:14:27.264Z,23.88
2023-01-04T08:17:00.949Z,23.96
2023-01-04T08:19:28.605Z,24.10
2023-01-04T08:22:04.389Z,24.44
2023-01-04T08:24:32.529Z,24.80
2023-01-04T08:27:00.511Z,24.99
2023-01-04T08:29:36.567Z,24.85
2023-01-04T08:32:04.971Z,24.71
2023-01-04T08:34:36.395Z,24.37
2023-01-04T08:37:12.284Z,24.38
2023-01-04T08:39:45.316Z,24.42
2023-01-04T08:42:25.120Z,24.61
2023-01-04T08:45:01.584Z,24.73
2023-01-04T08:47:34.587Z,24.85
2023-01-04T08:50:10.358Z,24.86
2023-01-04T08:52:41.939Z,24.84
2023-01-04T08:55:17.749Z,24.98
2023-01-04T08:57:54.475Z,24.80
2023-01-04T09:00:25.687Z,25.09
2023-01-04T09:03:01.641Z,25.00
2023-01-04T09:05:33.208Z,24.76
2023-01-04T09:08:03.986Z,24.71
2023-01-04T09:10:32.027Z,24.66
2023-01-04T09:13:03.060Z,24.65
2023-01-04T09:15:34.449Z,24.57
2023-01-04T09:18:31.132Z,24.41
2023-01-04T09:20:53.729Z,24.20
2023-01-04T09:23:28.817Z,24.11
2023-01-04T09:26:09.314Z,24.02
2023-01-04T09:28:43.731Z,23.97
2023-01-04T09:31:22.474Z,23.95
2023-01-04T09:36:39.837Z,23.83
2023-01-04T09:39:09.161Z,23.61
2023-01-04T09:41:52.507Z,23.52
2023-01-04T09:47:44.073Z,23.64
2023-01-04T09:50:36.853Z,23.58
2023-01-04T09:53:23.728Z,23.58
2023-01-04T09:55:57.823Z,23.63
2023-01-04T09:58:32.163Z,23.65
2023-01-04T10:01:17.252Z,23.54
2023-01-04T10:03:56.882Z,23.65
2023-01-04T10:06:26.222Z,23.65
2023-01-04T10:09:08.018Z,23.60
2023-01-04T10:12:14.312Z,23.56
2023-01-04T10:15:07.746Z,23.49
2023-01-04T10:21:32.228Z,23.75
2023-01-04T10:24:15.036Z,24.07
2023-01-04T10:26:49.947Z,24.14
2023-01-04T10:29:29.830Z,24.39
2023-01-04T10:32:26.945Z,24.60
2023-01-04T10:35:02.685Z,24.92
2023-01-04T10:37:53.788Z,25.13
2023-01-04T10:40:27.708Z,25.49
2023-01-04T10:43:23.538Z,25.22
2023-01-04T10:46:02.991Z,25.67
2023-01-04T10:48:48.897Z,25.86
2023-01-04T10:51:34.698Z,25.90
2023-01-04T10:54:23.734Z,25.88
2023-01-04T10:57:11.586Z,25.86
2023-01-04T10:59:49.328Z,25.48
2023-01-04T11:02:40.927Z,25.50
2023-01-04T11:05:49.267Z,25.49
2023-01-04T11:09:02.066Z,25.66
2023-01-04T11:11:40.954Z,25.50
2023-01-04T11:14:10.523Z,25.60
2023-01-04T11:16:44.271Z,25.79
2023-01-04T11:19:16.161Z,25.60
2023-01-04T11:21:59.086Z,25.25
2023-01-04T11:24:38.965Z,25.47
2023-01-04T11:27:16.255Z,25.54
2023-01-04T11:29:58.284Z,25.40
2023-01-04T11:33:03.321Z,25.58
2023-01-04T11:35:42.484Z,25.48
2023-01-04T11:38:19.169Z,25.40
2023-01-04T11:41:02.684Z,25.50
2023-01-04T11:43:38.425Z,25.58
2023-01-04T11:46:21.723Z,25.45
2023-01-04T11:48:50.320Z,25.55
2023-01-04T11:51:28.883Z,25.65
2023-01-04T11:54:05.984Z,25.98
2023-01-04T11:56:37.480Z,25.87
2023-01-04T11:59:25.117Z,25.70
2023-01-04T12:02:42.116Z,25.44
2023-01-04T12:05:30.348Z,24.96
2023-01-04T12:08:03.227Z,24.90
2023-01-04T12:10:41.928Z,24.83
2023-01-04T12:13:12.708Z,24.63
2023-01-04T12:16:03.157Z,24.49
2023-01-04T12:18:39.129Z,24.36
2023-01-04T12:21:27.598Z,24.35
2023-01-04T12:24:00.888Z,24.43
2023-01-04T12:26:36.094Z,24.48
2023-01-04T12:29:24.882Z,24.39
2023-01-04T12:32:14.589Z,24.30
2023-01-04T12:34:47.513Z,24.31
2023-01-04T12:37:36.678Z,24.26
2023-01-04T12:40:42.825Z,24.29
2023-01-04T12:43:16.664Z,24.02
2023-01-04T12:45:48.623Z,24.01
2023-01-04T12:48:49.699Z,24.21
2023-01-04T12:51:32.827Z,24.44
2023-01-04T12:54:06.077Z,24.71
2023-01-04T12:57:11.253Z,24.58
2023-01-04T12:59:57.488Z,24.64
2023-01-04T13:02:51.114Z,24.55
2023-01-04T13:08:17.017Z,24.75
2023-01-04T13:10:55.272Z,24.90
2023-01-04T13:13:41.500Z,24.97
2023-01-04T13:16:30.497Z,24.99
2023-01-04T13:19:12.604Z,25.07
2023-01-04T13:21:47.736Z,24.96
2023-01-04T13:24:24.523Z,25.21
2023-01-04T13:26:53.002Z,25.59
2023-01-04T13:29:31.596Z,26.09
2023-01-04T13:32:21.645Z,26.12
2023-01-04T13:34:59.880Z,26.22
2023-01-04T13:37:43.990Z,25.97
2023-01-04T13:40:29.689Z,26.09
2023-01-04T13:43:28.153Z,26.71
2023-01-04T13:46:27.035Z,26.33
2023-01-04T13:49:04.614Z,26.55
2023-01-04T13:51:38.529Z,26.34
2023-01-04T13:54:35.822Z,26.08
2023-01-04T13:57:15.236Z,26.13
2023-01-04T13:59:51.179Z,25.87
2023-01-04T14:02:29.099Z,25.67
2023-01-04T14:05:04.053Z,25.61
2023-01-04T14:07:48.171Z,25.25
2023-01-04T14:10:22.859Z,25.46
2023-01-04T14:12:58.790Z,25.62
2023-01-04T14:15:27.207Z,25.81
2023-01-04T14:18:05.891Z,25.85
2023-01-04T14:20:37.339Z,25.56
2023-01-04T14:23:28.841Z,25.71
2023-01-04T14:26:00.667Z,25.91
2023-01-04T14:28:33.523Z,26.18
2023-01-04T14:31:10.585Z,26.26
2023-01-04T14:33:46.736Z,26.18
2023-01-04T14:36:26.447Z,25.96
2023-01-04T14:39:12.924Z,25.96
2023-01-04T14:41:55.004Z,26.34
2023-01-04T14:44:31.122Z,25.94
2023-01-04T14:47:01.883Z,26.06
2023-01-04T14:49:32.101Z,26.23
2023-01-04T14:52:03.016Z,26.22
2023-01-04T14:54:35.470Z,26.02
2023-01-04T14:57:12.431Z,25.72
2023-01-04T14:59:46.142Z,25.80
2023-01-04T15:02:19.337Z,25.86
2023-01-04T15:04:47.570Z,25.94
2023-01-04T15:07:40.245Z,26.11
2023-01-04T15:10:22.026Z,25.95
2023-01-04T15:12:52.727Z,25.98
2023-01-04T15:15:24.229Z,25.80
2023-01-04T15:17:52.188Z,25.70
2023-01-04T15:20:28.728Z,25.66
2023-01-04T15:23:02.157Z,25.38
2023-01-04T15:25:32.998Z,25.49
2023-01-04T15:28:04.229Z,25.61
2023-01-04T15:30:35.356Z,25.53
2023-01-04T15:33:12.378Z,25.48
2023-01-04T15:35:45.387Z,25.61
2023-01-04T15:38:18.183Z,25.83
2023-01-04T15:40:48.567Z,25.88
2023-01-04T15:43:23.859Z,26.05
2023-01-04T15:45:56.448Z,26.55
2023-01-04T15:48:34.055Z,27.03
2023-01-04T15:51:09.057Z,27.24
2023-01-04T15:53:36.857Z,27.17
2023-01-04T15:56:07.239Z,27.21
2023-01-04T15:58:40.961Z,26.91
2023-01-04T16:01:17.099Z,26.39
2023-01-04T16:03:53.699Z,26.12
2023-01-04T16:06:27.600Z,26.23
2023-01-04T16:08:59.133Z,26.32
2023-01-04T16:11:26.796Z,26.11
2023-01-04T16:13:58.227Z,26.30
2023-01-04T16:16:32.852Z,26.06
2023-01-04T16:19:02.513Z,25.80
2023-01-04T16:21:31.741Z,25.63
2023-01-04T16:24:17.241Z,25.43
2023-01-04T16:27:00.911Z,25.24
2023-01-04T16:29:31.087Z,25.17
2023-01-04T16:32:04.115Z,24.95
2023-01-04T16:34:34.886Z,24.84
2023-01-04T16:37:15.566Z,24.86
2023-01-04T16:42:34.074Z,24.72
2023-01-04T16:45:02.927Z,24.65
2023-01-04T16:47:41.304Z,24.63
2023-01-04T16:50:14.232Z,24.58
2023-01-04T16:52:44.594Z,24.50
2023-01-04T16:55:23.602Z,24.41
2023-01-04T16:57:52.824Z,24.40
2023-01-04T17:00:24.093Z,24.37
2023-01-04T17:02:57.990Z,24.37
2023-01-04T17:05:28.802Z,24.27
2023-01-04T17:08:04.037Z,24.33
2023-01-04T17:10:37.424Z,24.29
2023-01-04T17:13:16.524Z,24.28
2023-01-04T17:15:44.753Z,24.17
2023-01-04T17:18:17.768Z,24.28
2023-01-04T17:21:24.115Z,24.22
2023-01-04T17:23:50.829Z,24.18
2023-01-04T17:26:25.313Z,24.21
2023-01-04T17:28:54.513Z,24.18
2023-01-04T17:31:27.678Z,24.18
2023-01-04T17:33:57.391Z,24.16
2023-01-04T17:36:32.674Z,24.14
2023-01-04T17:39:01.131Z,24.13
2023-01-04T17:41:30.443Z,24.16
2023-01-04T17:44:04.809Z,24.13
2023-01-04T17:46:36.876Z,24.10
2023-01-04T17:49:22.312Z,24.07
2023-01-04T17:51:54.624Z,24.06
2023-01-04T17:54:25.557Z,24.03
2023-01-04T17:56:57.870Z,24.04
2023-01-04T17:59:25.390Z,24.05
2023-01-04T18:01:55.436Z,24.04
2023-01-04T18:04:25.173Z,24.03
2023-01-04T18:06:57.858Z,24.03
2023-01-04T18:09:30.513Z,23.99
2023-01-04T18:11:57.814Z,23.99
2023-01-04T18:14:31.020Z,24.01
2023-01-04T18:16:58.924Z,23.99
2023-01-04T18:19:29.151Z,24.00
2023-01-04T18:21:59.003Z,24.01
2023-01-04T18:24:42.155Z,23.96
2023-01-04T18:27:22.051Z,23.93
2023-01-04T18:29:52.000Z,23.92
2023-01-04T18:32:23.388Z,23.87
2023-01-04T18:35:04.438Z,23.88
2023-01-04T18:37:35.912Z,23.81
2023-01-04T18:40:04.749Z,23.83
2023-01-04T18:42:34.767Z,23.87
2023-01-04T18:45:02.113Z,23.79
2023-01-04T18:47:34.823Z,23.88
2023-01-04T18:50:05.112Z,23.83
2023-01-04T18:52:37.798Z,23.87
2023-01-04T18:55:08.065Z,23.88
2023-01-04T18:57:37.797Z,23.90
2023-01-04T19:00:11.653Z,23.86
2023-01-04T19:02:44.419Z,23.87
2023-01-04T19:05:13.394Z,23.84
2023-01-04T19:07:46.268Z,23.86
2023-01-04T19:10:17.024Z,23.82
2023-01-04T19:12:49.201Z,23.82
2023-01-04T19:15:16.537Z,23.82
2023-01-04T19:17:46.522Z,23.82
2023-01-04T19:20:14.092Z,23.79
2023-01-04T19:22:47.243Z,23.83
2023-01-04T19:25:17.275Z,23.84
2023-01-04T19:27:47.530Z,23.82
2023-01-04T19:30:17.071Z,23.80
2023-01-04T19:32:49.229Z,23.81
2023-01-04T19:35:16.626Z,23.77
2023-01-04T19:37:49.152Z,23.75
2023-01-04T19:40:18.637Z,23.75
2023-01-04T19:42:48.130Z,23.76
2023-01-04T19:45:18.464Z,23.78
2023-01-04T19:47:51.747Z,23.80
2023-01-04T19:50:23.910Z,23.81
2023-01-04T19:52:53.640Z,23.80
2023-01-04T19:55:24.529Z,23.79
2023-01-04T19:57:54.257Z,23.72
2023-01-04T20:00:26.906Z,23.70
2023-01-04T20:02:56.687Z,23.70
2023-01-04T20:05:24.199Z,23.67
2023-01-04T20:07:53.836Z,23.65
2023-01-04T20:10:21.171Z,23.58
2023-01-04T20:12:50.995Z,23.65
2023-01-04T20:15:18.489Z,23.67
2023-01-04T20:17:50.983Z,23.63
2023-01-04T20:20:22.094Z,23.69
2023-01-04T20:22:50.287Z,23.71
2023-01-04T20:25:20.052Z,23.72
2023-01-04T20:27:51.026Z,23.73
2023-01-04T20:30:23.339Z,23.70
2023-01-04T20:32:53.108Z,23.69
2023-01-04T20:35:21.282Z,23.69
2023-01-04T20:37:49.210Z,23.67
2023-01-04T20:40:24.923Z,23.69
2023-01-04T20:43:10.723Z,23.74
2023-01-04T20:45:46.002Z,23.66
2023-01-04T20:48:16.417Z,23.59
2023-01-04T20:50:46.140Z,23.60
2023-01-04T20:53:18.843Z,23.58
2023-01-04T20:55:48.771Z,23.55
2023-01-04T20:58:19.126Z,23.53
2023-01-04T21:00:49.314Z,23.59
2023-01-04T21:03:16.869Z,23.59
2023-01-04T21:05:45.182Z,23.55
2023-01-04T21:08:13.262Z,23.56
2023-01-04T21:10:44.164Z,23.58
2023-01-04T21:13:12.725Z,23.61
2023-01-04T21:15:40.308Z,23.61
2023-01-04T21:18:11.195Z,23.62
2023-01-04T21:20:45.810Z,23.61
2023-01-04T21:23:18.818Z,23.62
2023-01-04T21:25:49.472Z,23.58
2023-01-04T21:28:21.136Z,23.60
2023-01-04T21:30:53.747Z,23.58
2023-01-04T21:33:21.201Z,23.59
2023-01-04T21:35:53.046Z,23.60
2023-01-04T21:38:25.599Z,23.58
2023-01-04T21:40:52.925Z,23.55
2023-01-04T21:43:20.333Z,23.57
2023-01-04T21:45:53.077Z,23.54
2023-01-04T21:48:20.423Z,23.57
2023-01-04T21:50:47.736Z,23.59
2023-01-04T21:53:15.040Z,23.59
2023-01-04T21:55:44.491Z,23.56
2023-01-04T21:58:11.853Z,23.59
2023-01-04T22:00:41.983Z,23.58
2023-01-04T22:03:12.338Z,23.59
2023-01-04T22:05:41.973Z,23.61
2023-01-04T22:08:12.192Z,23.77
2023-01-04T22:10:41.930Z,23.87
2023-01-04T22:13:12.252Z,23.94
2023-01-04T22:15:40.276Z,24.02
2023-01-04T22:18:11.164Z,24.17
2023-01-04T22:20:40.676Z,24.23
2023-01-04T22:23:08.184Z,24.31
2023-01-04T22:25:38.554Z,24.35
2023-01-04T22:28:11.197Z,24.46
2023-01-04T22:30:43.431Z,24.54
2023-01-04T22:33:16.076Z,24.58
2023-01-04T22:35:43.477Z,24.59
2023-01-04T22:38:22.681Z,24.62
2023-01-04T22:40:52.241Z,24.60
2023-01-04T22:43:22.619Z,24.63
2023-01-04T22:45:59.085Z,24.71
2023-01-04T22:48:30.203Z,24.72
2023-01-04T22:50:57.802Z,24.67
2023-01-04T22:53:25.188Z,24.61
2023-01-04T22:56:18.212Z,24.42
2023-01-04T22:58:52.936Z,24.23
2023-01-04T23:01:25.699Z,24.21
2023-01-04T23:03:56.290Z,24.07
2023-01-04T23:06:25.375Z,23.98
2023-01-04T23:09:14.291Z,23.91
2023-01-04T23:11:45.234Z,23.86
2023-01-04T23:14:15.727Z,23.81
2023-01-04T23:16:46.450Z,23.74
2023-01-04T23:19:14.370Z,23.68
2023-01-04T23:21:47.205Z,23.64
2023-01-04T23:24:17.468Z,23.63
2023-01-04T23:26:47.319Z,23.56
2023-01-04T23:29:14.671Z,23.56
2023-01-04T23:31:44.274Z,23.58
2023-01-04T23:34:12.606Z,23.52
2023-01-04T23:36:41.596Z,23.50
2023-01-04T23:39:16.982Z,23.52
2023-01-04T23:41:47.362Z,23.49
2023-01-04T23:44:25.948Z,23.49
2023-01-04T23:47:00.373Z,23.48
2023-01-04T23:49:30.438Z,23.44
2023-01-04T23:52:00.830Z,23.43
2023-01-04T23:54:28.761Z,23.43
2023-01-04T23:56:56.511Z,23.43
2023-01-04T23:59:26.787Z,23.43
